sensor_id;sensor_type;location;lat;lon;timestamp;P1;durP1;ratioP1;P2;durP2;ratioP2
77111;SDS011;66064;50.226;14.344;2023-05-10T00:01:38;5.95;;;5.55;;
77111;SDS011;66064;50.226;14.344;2023-05-10T00:04:05;5.88;;;5.47;;
77111;SDS011;66064;50.226;14.344;2023-05-10T00:06:30;5.97;;;5.55;;
77111;SDS011;66064;50.226;14.344;2023-05-10T00:08:57;6.70;;;6.28;;
77111;SDS011;66064;50.226;14.344;2023-05-10T00:11:23;6.20;;;5.78;;
77111;SDS011;66064;50.226;14.344;2023-05-10T00:13:49;5.65;;;5.28;;
77111;SDS011;66064;50.226;14.344;2023-05-10T00:16:15;6.30;;;5.80;;
77111;SDS011;66064;50.226;14.344;2023-05-10T00:18:41;5.82;;;5.43;;
77111;SDS011;66064;50.226;14.344;2023-05-10T00:21:07;6.28;;;5.82;;
77111;SDS011;66064;50.226;14.344;2023-05-10T00:23:33;8.02;;;7.53;;
77111;SDS011;66064;50.226;14.344;2023-05-10T00:25:58;5.32;;;5.03;;
77111;SDS011;66064;50.226;14.344;2023-05-10T00:28:25;7.05;;;6.43;;
77111;SDS011;66064;50.226;14.344;2023-05-10T00:30:53;6.00;;;5.60;;
77111;SDS011;66064;50.226;14.344;2023-05-10T00:33:20;5.63;;;5.18;;
77111;SDS011;66064;50.226;14.344;2023-05-10T00:35:45;7.15;;;6.65;;
77111;SDS011;66064;50.226;14.344;2023-05-10T00:38:12;8.07;;;7.28;;
77111;SDS011;66064;50.226;14.344;2023-05-10T00:40:37;6.63;;;6.13;;
77111;SDS011;66064;50.226;14.344;2023-05-10T00:43:04;8.88;;;8.27;;
77111;SDS011;66064;50.226;14.344;2023-05-10T00:45:31;7.10;;;6.63;;
77111;SDS011;66064;50.226;14.344;2023-05-10T00:47:59;8.13;;;7.72;;
77111;SDS011;66064;50.226;14.344;2023-05-10T00:50:27;6.22;;;5.55;;
77111;SDS011;66064;50.226;14.344;2023-05-10T00:52:54;6.25;;;5.85;;
77111;SDS011;66064;50.226;14.344;2023-05-10T00:55:20;6.50;;;6.00;;
77111;SDS011;66064;50.226;14.344;2023-05-10T00:57:47;7.00;;;6.45;;
77111;SDS011;66064;50.226;14.344;2023-05-10T01:00:13;7.35;;;6.70;;
77111;SDS011;66064;50.226;14.344;2023-05-10T01:02:46;6.57;;;6.18;;
77111;SDS011;66064;50.226;14.344;2023-05-10T01:05:12;5.97;;;5.47;;
77111;SDS011;66064;50.226;14.344;2023-05-10T01:07:39;8.85;;;8.30;;
77111;SDS011;66064;50.226;14.344;2023-05-10T01:10:05;6.60;;;6.20;;
77111;SDS011;66064;50.226;14.344;2023-05-10T01:12:34;8.77;;;7.07;;
77111;SDS011;66064;50.226;14.344;2023-05-10T01:15:06;6.72;;;6.25;;
77111;SDS011;66064;50.226;14.344;2023-05-10T01:17:34;6.72;;;6.22;;
77111;SDS011;66064;50.226;14.344;2023-05-10T01:20:02;6.65;;;6.25;;
77111;SDS011;66064;50.226;14.344;2023-05-10T01:25:20;5.97;;;5.57;;
77111;SDS011;66064;50.226;14.344;2023-05-10T01:28:04;6.13;;;5.72;;
77111;SDS011;66064;50.226;14.344;2023-05-10T01:33:59;7.47;;;6.93;;
77111;SDS011;66064;50.226;14.344;2023-05-10T01:36:42;6.20;;;5.90;;
77111;SDS011;66064;50.226;14.344;2023-05-10T01:41:45;7.65;;;5.70;;
77111;SDS011;66064;50.226;14.344;2023-05-10T01:44:35;8.63;;;8.00;;
77111;SDS011;66064;50.226;14.344;2023-05-10T01:47:10;7.28;;;6.68;;
77111;SDS011;66064;50.226;14.344;2023-05-10T01:49:49;6.78;;;6.38;;
77111;SDS011;66064;50.226;14.344;2023-05-10T01:52:19;6.57;;;5.97;;
77111;SDS011;66064;50.226;14.344;2023-05-10T01:54:53;7.00;;;6.38;;
77111;SDS011;66064;50.226;14.344;2023-05-10T01:57:25;6.32;;;5.90;;
77111;SDS011;66064;50.226;14.344;2023-05-10T01:59:58;6.40;;;6.00;;
77111;SDS011;66064;50.226;14.344;2023-05-10T02:02:27;8.10;;;7.60;;
77111;SDS011;66064;50.226;14.344;2023-05-10T02:04:55;5.82;;;5.43;;
77111;SDS011;66064;50.226;14.344;2023-05-10T02:07:23;6.57;;;6.20;;
77111;SDS011;66064;50.226;14.344;2023-05-10T02:09:51;7.38;;;6.90;;
77111;SDS011;66064;50.226;14.344;2023-05-10T02:12:17;5.90;;;5.47;;
77111;SDS011;66064;50.226;14.344;2023-05-10T02:14:45;7.78;;;5.90;;
77111;SDS011;66064;50.226;14.344;2023-05-10T02:17:13;6.25;;;5.93;;
77111;SDS011;66064;50.226;14.344;2023-05-10T02:19:40;7.03;;;6.43;;
77111;SDS011;66064;50.226;14.344;2023-05-10T02:22:07;6.93;;;6.38;;
77111;SDS011;66064;50.226;14.344;2023-05-10T02:24:35;6.53;;;6.13;;
77111;SDS011;66064;50.226;14.344;2023-05-10T02:27:03;4.93;;;4.63;;
77111;SDS011;66064;50.226;14.344;2023-05-10T02:29:30;6.00;;;5.65;;
77111;SDS011;66064;50.226;14.344;2023-05-10T02:31:58;13.35;;;12.70;;
77111;SDS011;66064;50.226;14.344;2023-05-10T02:34:26;6.32;;;5.45;;
77111;SDS011;66064;50.226;14.344;2023-05-10T02:36:53;6.35;;;5.78;;
77111;SDS011;66064;50.226;14.344;2023-05-10T02:39:20;4.80;;;4.50;;
77111;SDS011;66064;50.226;14.344;2023-05-10T02:41:48;8.15;;;6.50;;
77111;SDS011;66064;50.226;14.344;2023-05-10T02:44:17;6.63;;;6.03;;
77111;SDS011;66064;50.226;14.344;2023-05-10T02:46:45;7.22;;;6.82;;
77111;SDS011;66064;50.226;14.344;2023-05-10T02:49:12;6.80;;;6.30;;
77111;SDS011;66064;50.226;14.344;2023-05-10T02:51:40;8.18;;;7.72;;
77111;SDS011;66064;50.226;14.344;2023-05-10T02:54:13;6.63;;;6.22;;
77111;SDS011;66064;50.226;14.344;2023-05-10T02:56:47;6.90;;;6.50;;
77111;SDS011;66064;50.226;14.344;2023-05-10T02:59:17;6.20;;;5.70;;
77111;SDS011;66064;50.226;14.344;2023-05-10T03:01:42;5.95;;;5.57;;
77111;SDS011;66064;50.226;14.344;2023-05-10T03:04:08;5.90;;;5.55;;
77111;SDS011;66064;50.226;14.344;2023-05-10T03:06:34;7.90;;;7.32;;
77111;SDS011;66064;50.226;14.344;2023-05-10T03:09:02;6.47;;;6.07;;
77111;SDS011;66064;50.226;14.344;2023-05-10T03:11:37;7.63;;;7.13;;
77111;SDS011;66064;50.226;14.344;2023-05-10T03:17:10;7.88;;;7.38;;
77111;SDS011;66064;50.226;14.344;2023-05-10T03:23:04;7.47;;;6.90;;
77111;SDS011;66064;50.226;14.344;2023-05-10T03:25:13;6.32;;;5.95;;
77111;SDS011;66064;50.226;14.344;2023-05-10T03:27:42;8.88;;;8.27;;
77111;SDS011;66064;50.226;14.344;2023-05-10T03:30:10;7.18;;;6.63;;
77111;SDS011;66064;50.226;14.344;2023-05-10T03:32:38;6.40;;;6.05;;
77111;SDS011;66064;50.226;14.344;2023-05-10T03:35:09;6.57;;;6.18;;
77111;SDS011;66064;50.226;14.344;2023-05-10T03:37:36;7.28;;;6.88;;
77111;SDS011;66064;50.226;14.344;2023-05-10T03:40:03;6.22;;;5.82;;
77111;SDS011;66064;50.226;14.344;2023-05-10T03:42:29;7.63;;;7.03;;
77111;SDS011;66064;50.226;14.344;2023-05-10T03:44:56;7.75;;;7.22;;
77111;SDS011;66064;50.226;14.344;2023-05-10T03:47:24;5.72;;;5.40;;
77111;SDS011;66064;50.226;14.344;2023-05-10T03:49:51;6.07;;;5.65;;
77111;SDS011;66064;50.226;14.344;2023-05-10T03:52:17;7.30;;;6.68;;
77111;SDS011;66064;50.226;14.344;2023-05-10T03:54:44;5.80;;;5.40;;
77111;SDS011;66064;50.226;14.344;2023-05-10T03:57:10;6.60;;;6.13;;
77111;SDS011;66064;50.226;14.344;2023-05-10T03:59:37;8.55;;;8.05;;
77111;SDS011;66064;50.226;14.344;2023-05-10T04:02:04;12.95;;;12.35;;
77111;SDS011;66064;50.226;14.344;2023-05-10T04:04:31;7.07;;;6.68;;
77111;SDS011;66064;50.226;14.344;2023-05-10T04:06:56;7.85;;;7.30;;
77111;SDS011;66064;50.226;14.344;2023-05-10T04:09:23;5.90;;;5.50;;
77111;SDS011;66064;50.226;14.344;2023-05-10T04:11:49;6.90;;;6.43;;
77111;SDS011;66064;50.226;14.344;2023-05-10T04:14:15;7.10;;;6.70;;
77111;SDS011;66064;50.226;14.344;2023-05-10T04:16:44;9.90;;;9.40;;
77111;SDS011;66064;50.226;14.344;2023-05-10T04:19:11;7.55;;;6.97;;
77111;SDS011;66064;50.226;14.344;2023-05-10T04:21:37;5.85;;;5.45;;
77111;SDS011;66064;50.226;14.344;2023-05-10T04:24:03;7.20;;;6.75;;
77111;SDS011;66064;50.226;14.344;2023-05-10T04:26:30;5.47;;;5.07;;
77111;SDS011;66064;50.226;14.344;2023-05-10T04:28:56;5.57;;;5.18;;
77111;SDS011;66064;50.226;14.344;2023-05-10T04:31:22;5.30;;;4.85;;
77111;SDS011;66064;50.226;14.344;2023-05-10T04:33:48;5.85;;;5.35;;
77111;SDS011;66064;50.226;14.344;2023-05-10T04:36:15;5.63;;;5.13;;
77111;SDS011;66064;50.226;14.344;2023-05-10T04:38:41;5.53;;;5.13;;
77111;SDS011;66064;50.226;14.344;2023-05-10T04:41:08;4.97;;;4.57;;
77111;SDS011;66064;50.226;14.344;2023-05-10T04:43:35;5.85;;;5.45;;
77111;SDS011;66064;50.226;14.344;2023-05-10T04:46:02;5.32;;;4.93;;
77111;SDS011;66064;50.226;14.344;2023-05-10T04:48:29;6.20;;;5.70;;
77111;SDS011;66064;50.226;14.344;2023-05-10T04:50:55;6.28;;;5.85;;
77111;SDS011;66064;50.226;14.344;2023-05-10T04:53:22;5.63;;;5.13;;
77111;SDS011;66064;50.226;14.344;2023-05-10T04:55:48;7.30;;;4.93;;
77111;SDS011;66064;50.226;14.344;2023-05-10T04:58:14;6.22;;;4.47;;
77111;SDS011;66064;50.226;14.344;2023-05-10T05:00:40;5.38;;;4.88;;
77111;SDS011;66064;50.226;14.344;2023-05-10T05:03:07;5.00;;;4.50;;
77111;SDS011;66064;50.226;14.344;2023-05-10T05:05:33;6.38;;;5.88;;
77111;SDS011;66064;50.226;14.344;2023-05-10T05:07:59;5.20;;;4.47;;
77111;SDS011;66064;50.226;14.344;2023-05-10T05:10:25;4.43;;;4.03;;
77111;SDS011;66064;50.226;14.344;2023-05-10T05:12:51;4.70;;;4.30;;
77111;SDS011;66064;50.226;14.344;2023-05-10T05:15:16;4.70;;;4.05;;
77111;SDS011;66064;50.226;14.344;2023-05-10T05:17:43;5.50;;;5.00;;
77111;SDS011;66064;50.226;14.344;2023-05-10T05:20:09;5.63;;;5.22;;
77111;SDS011;66064;50.226;14.344;2023-05-10T05:22:36;5.38;;;4.88;;
77111;SDS011;66064;50.226;14.344;2023-05-10T05:25:02;5.03;;;4.53;;
77111;SDS011;66064;50.226;14.344;2023-05-10T05:27:29;4.13;;;3.75;;
77111;SDS011;66064;50.226;14.344;2023-05-10T05:29:55;5.30;;;4.90;;
77111;SDS011;66064;50.226;14.344;2023-05-10T05:32:22;5.88;;;5.38;;
77111;SDS011;66064;50.226;14.344;2023-05-10T05:34:49;6.90;;;5.03;;
77111;SDS011;66064;50.226;14.344;2023-05-10T05:37:16;5.45;;;4.47;;
77111;SDS011;66064;50.226;14.344;2023-05-10T05:39:44;4.72;;;4.13;;
77111;SDS011;66064;50.226;14.344;2023-05-10T05:42:11;4.55;;;4.13;;
77111;SDS011;66064;50.226;14.344;2023-05-10T05:44:38;3.80;;;3.35;;
77111;SDS011;66064;50.226;14.344;2023-05-10T05:47:04;6.38;;;4.28;;
77111;SDS011;66064;50.226;14.344;2023-05-10T05:49:31;4.18;;;3.72;;
77111;SDS011;66064;50.226;14.344;2023-05-10T05:51:58;5.38;;;3.75;;
77111;SDS011;66064;50.226;14.344;2023-05-10T05:54:26;4.95;;;3.53;;
77111;SDS011;66064;50.226;14.344;2023-05-10T05:56:59;5.93;;;3.83;;
77111;SDS011;66064;50.226;14.344;2023-05-10T05:59:26;7.53;;;4.22;;
77111;SDS011;66064;50.226;14.344;2023-05-10T06:01:52;4.10;;;3.70;;
77111;SDS011;66064;50.226;14.344;2023-05-10T06:04:18;4.57;;;4.15;;
77111;SDS011;66064;50.226;14.344;2023-05-10T06:06:44;4.60;;;4.10;;
77111;SDS011;66064;50.226;14.344;2023-05-10T06:09:10;4.60;;;4.00;;
77111;SDS011;66064;50.226;14.344;2023-05-10T06:11:38;5.78;;;3.90;;
77111;SDS011;66064;50.226;14.344;2023-05-10T06:14:04;5.10;;;3.90;;
77111;SDS011;66064;50.226;14.344;2023-05-10T06:16:30;5.53;;;3.38;;
77111;SDS011;66064;50.226;14.344;2023-05-10T06:18:57;5.03;;;4.60;;
77111;SDS011;66064;50.226;14.344;2023-05-10T06:21:23;3.85;;;3.33;;
77111;SDS011;66064;50.226;14.344;2023-05-10T06:23:48;6.68;;;4.05;;
77111;SDS011;66064;50.226;14.344;2023-05-10T06:26:15;6.38;;;4.30;;
77111;SDS011;66064;50.226;14.344;2023-05-10T06:28:40;5.40;;;3.95;;
77111;SDS011;66064;50.226;14.344;2023-05-10T06:31:06;5.63;;;3.28;;
77111;SDS011;66064;50.226;14.344;2023-05-10T06:33:33;4.22;;;3.30;;
77111;SDS011;66064;50.226;14.344;2023-05-10T06:35:59;5.20;;;3.92;;
77111;SDS011;66064;50.226;14.344;2023-05-10T06:38:25;3.97;;;3.55;;
77111;SDS011;66064;50.226;14.344;2023-05-10T06:40:51;5.18;;;2.92;;
77111;SDS011;66064;50.226;14.344;2023-05-10T06:43:17;4.00;;;3.55;;
77111;SDS011;66064;50.226;14.344;2023-05-10T06:45:43;3.95;;;3.22;;
77111;SDS011;66064;50.226;14.344;2023-05-10T06:48:09;4.18;;;3.30;;
77111;SDS011;66064;50.226;14.344;2023-05-10T06:50:35;4.22;;;3.03;;
77111;SDS011;66064;50.226;14.344;2023-05-10T06:53:01;3.50;;;2.83;;
77111;SDS011;66064;50.226;14.344;2023-05-10T06:55:27;4.75;;;3.30;;
77111;SDS011;66064;50.226;14.344;2023-05-10T06:57:53;4.57;;;3.30;;
77111;SDS011;66064;50.226;14.344;2023-05-10T07:00:19;4.63;;;2.53;;
77111;SDS011;66064;50.226;14.344;2023-05-10T07:02:46;4.22;;;2.92;;
77111;SDS011;66064;50.226;14.344;2023-05-10T07:05:12;3.88;;;2.72;;
77111;SDS011;66064;50.226;14.344;2023-05-10T07:07:39;4.60;;;3.20;;
77111;SDS011;66064;50.226;14.344;2023-05-10T07:10:05;4.22;;;2.97;;
77111;SDS011;66064;50.226;14.344;2023-05-10T07:12:32;5.20;;;2.65;;
77111;SDS011;66064;50.226;14.344;2023-05-10T07:14:58;4.68;;;3.33;;
77111;SDS011;66064;50.226;14.344;2023-05-10T07:17:24;4.05;;;3.03;;
77111;SDS011;66064;50.226;14.344;2023-05-10T07:19:51;4.05;;;2.83;;
77111;SDS011;66064;50.226;14.344;2023-05-10T07:22:17;5.78;;;3.35;;
77111;SDS011;66064;50.226;14.344;2023-05-10T07:24:43;4.20;;;3.20;;
77111;SDS011;66064;50.226;14.344;2023-05-10T07:27:09;4.75;;;3.45;;
77111;SDS011;66064;50.226;14.344;2023-05-10T07:29:35;5.88;;;3.05;;
77111;SDS011;66064;50.226;14.344;2023-05-10T07:32:02;5.45;;;3.38;;
77111;SDS011;66064;50.226;14.344;2023-05-10T07:34:28;4.22;;;3.00;;
77111;SDS011;66064;50.226;14.344;2023-05-10T07:36:57;5.03;;;3.53;;
77111;SDS011;66064;50.226;14.344;2023-05-10T07:39:24;4.07;;;3.20;;
77111;SDS011;66064;50.226;14.344;2023-05-10T07:41:49;5.10;;;2.88;;
77111;SDS011;66064;50.226;14.344;2023-05-10T07:44:15;4.90;;;3.45;;
77111;SDS011;66064;50.226;14.344;2023-05-10T07:46:44;5.50;;;3.72;;
77111;SDS011;66064;50.226;14.344;2023-05-10T07:49:10;4.13;;;2.80;;
77111;SDS011;66064;50.226;14.344;2023-05-10T07:51:36;3.63;;;2.80;;
77111;SDS011;66064;50.226;14.344;2023-05-10T07:54:02;4.95;;;3.35;;
77111;SDS011;66064;50.226;14.344;2023-05-10T07:56:29;4.80;;;3.38;;
77111;SDS011;66064;50.226;14.344;2023-05-10T07:59:00;4.03;;;2.80;;
77111;SDS011;66064;50.226;14.344;2023-05-10T08:01:32;4.88;;;2.72;;
77111;SDS011;66064;50.226;14.344;2023-05-10T08:04:00;4.25;;;2.63;;
77111;SDS011;66064;50.226;14.344;2023-05-10T08:06:27;4.57;;;2.85;;
77111;SDS011;66064;50.226;14.344;2023-05-10T08:08:55;4.90;;;3.13;;
77111;SDS011;66064;50.226;14.344;2023-05-10T08:11:21;4.05;;;2.70;;
77111;SDS011;66064;50.226;14.344;2023-05-10T08:13:48;5.88;;;3.05;;
77111;SDS011;66064;50.226;14.344;2023-05-10T08:16:15;5.18;;;3.08;;
77111;SDS011;66064;50.226;14.344;2023-05-10T08:18:43;5.43;;;2.67;;
77111;SDS011;66064;50.226;14.344;2023-05-10T08:21:10;4.65;;;2.50;;
77111;SDS011;66064;50.226;14.344;2023-05-10T08:23:37;4.45;;;2.55;;
77111;SDS011;66064;50.226;14.344;2023-05-10T08:26:03;4.38;;;2.60;;
77111;SDS011;66064;50.226;14.344;2023-05-10T08:28:29;3.95;;;2.63;;
77111;SDS011;66064;50.226;14.344;2023-05-10T08:30:55;5.57;;;3.83;;
77111;SDS011;66064;50.226;14.344;2023-05-10T08:33:21;3.78;;;2.70;;
77111;SDS011;66064;50.226;14.344;2023-05-10T08:35:47;5.03;;;3.42;;
77111;SDS011;66064;50.226;14.344;2023-05-10T08:38:13;3.85;;;2.70;;
77111;SDS011;66064;50.226;14.344;2023-05-10T08:40:42;3.88;;;2.55;;
77111;SDS011;66064;50.226;14.344;2023-05-10T08:43:10;3.65;;;2.33;;
77111;SDS011;66064;50.226;14.344;2023-05-10T08:45:38;4.72;;;2.75;;
77111;SDS011;66064;50.226;14.344;2023-05-10T08:48:06;4.47;;;2.72;;
77111;SDS011;66064;50.226;14.344;2023-05-10T08:50:37;4.38;;;2.58;;
77111;SDS011;66064;50.226;14.344;2023-05-10T08:53:06;4.22;;;2.65;;
77111;SDS011;66064;50.226;14.344;2023-05-10T08:55:36;4.22;;;2.70;;
77111;SDS011;66064;50.226;14.344;2023-05-10T08:58:07;3.97;;;2.85;;
77111;SDS011;66064;50.226;14.344;2023-05-10T09:00:33;4.13;;;2.75;;
77111;SDS011;66064;50.226;14.344;2023-05-10T09:03:00;6.45;;;2.58;;
77111;SDS011;66064;50.226;14.344;2023-05-10T09:05:28;4.15;;;2.47;;
77111;SDS011;66064;50.226;14.344;2023-05-10T09:07:54;4.93;;;2.85;;
77111;SDS011;66064;50.226;14.344;2023-05-10T09:10:20;3.47;;;2.50;;
77111;SDS011;66064;50.226;14.344;2023-05-10T09:12:48;3.53;;;2.63;;
77111;SDS011;66064;50.226;14.344;2023-05-10T09:15:14;3.95;;;2.90;;
77111;SDS011;66064;50.226;14.344;2023-05-10T09:17:42;3.45;;;2.33;;
77111;SDS011;66064;50.226;14.344;2023-05-10T09:20:09;4.90;;;2.50;;
77111;SDS011;66064;50.226;14.344;2023-05-10T09:22:36;4.15;;;2.75;;
77111;SDS011;66064;50.226;14.344;2023-05-10T09:25:06;3.75;;;2.35;;
77111;SDS011;66064;50.226;14.344;2023-05-10T09:27:35;4.78;;;2.42;;
77111;SDS011;66064;50.226;14.344;2023-05-10T09:30:02;3.50;;;2.20;;
77111;SDS011;66064;50.226;14.344;2023-05-10T09:32:36;3.67;;;2.70;;
77111;SDS011;66064;50.226;14.344;2023-05-10T09:37:40;4.55;;;2.78;;
77111;SDS011;66064;50.226;14.344;2023-05-10T09:40:07;3.47;;;2.35;;
77111;SDS011;66064;50.226;14.344;2023-05-10T09:42:36;3.30;;;2.65;;
77111;SDS011;66064;50.226;14.344;2023-05-10T09:45:03;5.00;;;3.03;;
77111;SDS011;66064;50.226;14.344;2023-05-10T09:47:36;3.47;;;2.45;;
77111;SDS011;66064;50.226;14.344;2023-05-10T09:50:02;4.40;;;2.60;;
77111;SDS011;66064;50.226;14.344;2023-05-10T09:52:30;3.47;;;2.53;;
77111;SDS011;66064;50.226;14.344;2023-05-10T09:55:10;4.55;;;3.28;;
77111;SDS011;66064;50.226;14.344;2023-05-10T09:57:36;3.58;;;2.42;;
77111;SDS011;66064;50.226;14.344;2023-05-10T10:00:03;4.47;;;3.03;;
77111;SDS011;66064;50.226;14.344;2023-05-10T10:02:30;6.07;;;2.70;;
77111;SDS011;66064;50.226;14.344;2023-05-10T10:04:56;4.32;;;2.70;;
77111;SDS011;66064;50.226;14.344;2023-05-10T10:07:23;2.97;;;2.28;;
77111;SDS011;66064;50.226;14.344;2023-05-10T10:09:52;3.70;;;2.47;;
77111;SDS011;66064;50.226;14.344;2023-05-10T10:12:19;3.80;;;2.45;;
77111;SDS011;66064;50.226;14.344;2023-05-10T10:14:46;3.95;;;2.50;;
77111;SDS011;66064;50.226;14.344;2023-05-10T10:19:40;3.95;;;2.50;;
77111;SDS011;66064;50.226;14.344;2023-05-10T10:22:07;4.40;;;2.90;;
77111;SDS011;66064;50.226;14.344;2023-05-10T10:24:32;4.00;;;2.75;;
77111;SDS011;66064;50.226;14.344;2023-05-10T10:27:02;4.97;;;2.70;;
77111;SDS011;66064;50.226;14.344;2023-05-10T10:29:36;4.03;;;2.80;;
77111;SDS011;66064;50.226;14.344;2023-05-10T10:35:20;3.47;;;2.47;;
77111;SDS011;66064;50.226;14.344;2023-05-10T10:37:50;5.53;;;3.05;;
77111;SDS011;66064;50.226;14.344;2023-05-10T10:40:30;4.80;;;3.10;;
77111;SDS011;66064;50.226;14.344;2023-05-10T10:42:57;5.60;;;2.95;;
77111;SDS011;66064;50.226;14.344;2023-05-10T10:45:43;4.13;;;2.70;;
77111;SDS011;66064;50.226;14.344;2023-05-10T10:48:33;5.78;;;3.22;;
77111;SDS011;66064;50.226;14.344;2023-05-10T10:50:59;3.75;;;2.35;;
77111;SDS011;66064;50.226;14.344;2023-05-10T10:53:26;4.53;;;2.95;;
77111;SDS011;66064;50.226;14.344;2023-05-10T10:56:02;5.05;;;3.20;;
77111;SDS011;66064;50.226;14.344;2023-05-10T10:58:33;6.78;;;3.00;;
77111;SDS011;66064;50.226;14.344;2023-05-10T11:01:12;4.22;;;2.85;;
77111;SDS011;66064;50.226;14.344;2023-05-10T11:06:44;3.92;;;2.72;;
77111;SDS011;66064;50.226;14.344;2023-05-10T11:09:10;4.18;;;3.00;;
77111;SDS011;66064;50.226;14.344;2023-05-10T11:11:53;3.97;;;2.85;;
77111;SDS011;66064;50.226;14.344;2023-05-10T11:14:24;3.75;;;2.80;;
77111;SDS011;66064;50.226;14.344;2023-05-10T11:16:50;4.40;;;2.60;;
77111;SDS011;66064;50.226;14.344;2023-05-10T11:19:17;3.15;;;2.33;;
77111;SDS011;66064;50.226;14.344;2023-05-10T11:21:45;3.78;;;2.47;;
77111;SDS011;66064;50.226;14.344;2023-05-10T11:24:13;3.20;;;2.38;;
77111;SDS011;66064;50.226;14.344;2023-05-10T11:26:40;3.60;;;2.40;;
77111;SDS011;66064;50.226;14.344;2023-05-10T11:29:06;4.40;;;2.50;;
77111;SDS011;66064;50.226;14.344;2023-05-10T11:31:32;5.03;;;2.53;;
77111;SDS011;66064;50.226;14.344;2023-05-10T11:33:59;3.55;;;2.60;;
77111;SDS011;66064;50.226;14.344;2023-05-10T11:36:29;3.22;;;2.22;;
77111;SDS011;66064;50.226;14.344;2023-05-10T11:38:59;3.40;;;2.30;;
77111;SDS011;66064;50.226;14.344;2023-05-10T11:41:29;4.00;;;2.20;;
77111;SDS011;66064;50.226;14.344;2023-05-10T11:43:56;4.15;;;2.60;;
77111;SDS011;66064;50.226;14.344;2023-05-10T11:46:26;2.90;;;2.20;;
77111;SDS011;66064;50.226;14.344;2023-05-10T11:48:55;4.18;;;2.22;;
77111;SDS011;66064;50.226;14.344;2023-05-10T11:51:23;3.40;;;2.30;;
77111;SDS011;66064;50.226;14.344;2023-05-10T11:53:52;4.88;;;2.53;;
77111;SDS011;66064;50.226;14.344;2023-05-10T11:56:19;4.63;;;2.45;;
77111;SDS011;66064;50.226;14.344;2023-05-10T11:58:51;5.47;;;3.90;;
77111;SDS011;66064;50.226;14.344;2023-05-10T12:01:18;3.63;;;2.35;;
77111;SDS011;66064;50.226;14.344;2023-05-10T12:03:44;3.85;;;2.47;;
77111;SDS011;66064;50.226;14.344;2023-05-10T12:06:11;4.00;;;3.10;;
77111;SDS011;66064;50.226;14.344;2023-05-10T12:08:37;3.47;;;2.75;;
77111;SDS011;66064;50.226;14.344;2023-05-10T12:11:11;4.07;;;2.72;;
77111;SDS011;66064;50.226;14.344;2023-05-10T12:13:40;3.70;;;2.80;;
77111;SDS011;66064;50.226;14.344;2023-05-10T12:16:12;4.57;;;2.97;;
77111;SDS011;66064;50.226;14.344;2023-05-10T12:18:52;4.55;;;2.75;;
77111;SDS011;66064;50.226;14.344;2023-05-10T12:21:25;4.10;;;2.85;;
77111;SDS011;66064;50.226;14.344;2023-05-10T12:23:54;3.50;;;2.95;;
77111;SDS011;66064;50.226;14.344;2023-05-10T12:26:24;3.70;;;2.90;;
77111;SDS011;66064;50.226;14.344;2023-05-10T12:28:55;4.72;;;3.20;;
77111;SDS011;66064;50.226;14.344;2023-05-10T12:31:50;4.28;;;3.28;;
77111;SDS011;66064;50.226;14.344;2023-05-10T12:34:29;3.60;;;2.75;;
77111;SDS011;66064;50.226;14.344;2023-05-10T12:36:56;4.18;;;3.35;;
77111;SDS011;66064;50.226;14.344;2023-05-10T12:39:23;5.53;;;3.40;;
77111;SDS011;66064;50.226;14.344;2023-05-10T12:41:49;3.40;;;2.85;;
77111;SDS011;66064;50.226;14.344;2023-05-10T12:44:16;3.15;;;2.55;;
77111;SDS011;66064;50.226;14.344;2023-05-10T12:46:42;3.22;;;2.60;;
77111;SDS011;66064;50.226;14.344;2023-05-10T12:49:08;4.57;;;3.42;;
77111;SDS011;66064;50.226;14.344;2023-05-10T12:51:34;4.18;;;2.88;;
77111;SDS011;66064;50.226;14.344;2023-05-10T12:54:00;4.35;;;3.38;;
77111;SDS011;66064;50.226;14.344;2023-05-10T12:56:26;3.78;;;3.00;;
77111;SDS011;66064;50.226;14.344;2023-05-10T12:58:52;3.40;;;2.70;;
77111;SDS011;66064;50.226;14.344;2023-05-10T13:01:18;5.03;;;3.45;;
77111;SDS011;66064;50.226;14.344;2023-05-10T13:03:45;3.88;;;3.45;;
77111;SDS011;66064;50.226;14.344;2023-05-10T13:06:10;4.00;;;2.95;;
77111;SDS011;66064;50.226;14.344;2023-05-10T13:08:38;6.32;;;3.53;;
77111;SDS011;66064;50.226;14.344;2023-05-10T13:11:05;3.35;;;3.00;;
77111;SDS011;66064;50.226;14.344;2023-05-10T13:13:31;4.28;;;2.92;;
77111;SDS011;66064;50.226;14.344;2023-05-10T13:15:57;3.50;;;3.15;;
77111;SDS011;66064;50.226;14.344;2023-05-10T13:18:23;3.85;;;2.80;;
77111;SDS011;66064;50.226;14.344;2023-05-10T13:20:49;4.28;;;3.00;;
77111;SDS011;66064;50.226;14.344;2023-05-10T13:23:16;4.35;;;3.30;;
77111;SDS011;66064;50.226;14.344;2023-05-10T13:25:41;4.28;;;2.90;;
77111;SDS011;66064;50.226;14.344;2023-05-10T13:28:07;4.63;;;3.20;;
77111;SDS011;66064;50.226;14.344;2023-05-10T13:30:33;4.05;;;3.15;;
77111;SDS011;66064;50.226;14.344;2023-05-10T13:32:59;4.00;;;3.40;;
77111;SDS011;66064;50.226;14.344;2023-05-10T13:35:25;3.78;;;2.40;;
77111;SDS011;66064;50.226;14.344;2023-05-10T13:37:51;4.88;;;2.90;;
77111;SDS011;66064;50.226;14.344;2023-05-10T13:40:18;3.92;;;3.22;;
77111;SDS011;66064;50.226;14.344;2023-05-10T13:42:45;3.63;;;3.20;;
77111;SDS011;66064;50.226;14.344;2023-05-10T13:45:12;5.03;;;3.45;;
77111;SDS011;66064;50.226;14.344;2023-05-10T13:47:38;4.45;;;3.45;;
77111;SDS011;66064;50.226;14.344;2023-05-10T13:50:04;4.13;;;3.53;;
77111;SDS011;66064;50.226;14.344;2023-05-10T13:52:31;3.75;;;3.35;;
77111;SDS011;66064;50.226;14.344;2023-05-10T13:54:57;5.93;;;4.00;;
77111;SDS011;66064;50.226;14.344;2023-05-10T13:57:23;5.57;;;3.45;;
77111;SDS011;66064;50.226;14.344;2023-05-10T13:59:50;4.95;;;3.35;;
77111;SDS011;66064;50.226;14.344;2023-05-10T14:02:16;4.60;;;3.05;;
77111;SDS011;66064;50.226;14.344;2023-05-10T14:04:42;4.93;;;3.17;;
77111;SDS011;66064;50.226;14.344;2023-05-10T14:07:08;5.82;;;4.32;;
77111;SDS011;66064;50.226;14.344;2023-05-10T14:09:34;6.90;;;4.57;;
77111;SDS011;66064;50.226;14.344;2023-05-10T14:12:00;4.90;;;4.35;;
77111;SDS011;66064;50.226;14.344;2023-05-10T14:14:26;6.38;;;4.43;;
77111;SDS011;66064;50.226;14.344;2023-05-10T14:16:53;8.40;;;4.72;;
77111;SDS011;66064;50.226;14.344;2023-05-10T14:19:19;6.18;;;5.05;;
77111;SDS011;66064;50.226;14.344;2023-05-10T14:21:45;6.53;;;4.50;;
77111;SDS011;66064;50.226;14.344;2023-05-10T14:24:11;6.10;;;5.30;;
77111;SDS011;66064;50.226;14.344;2023-05-10T14:26:37;6.45;;;5.28;;
77111;SDS011;66064;50.226;14.344;2023-05-10T14:29:03;7.00;;;4.82;;
77111;SDS011;66064;50.226;14.344;2023-05-10T14:31:29;5.45;;;4.28;;
77111;SDS011;66064;50.226;14.344;2023-05-10T14:33:55;5.10;;;4.38;;
77111;SDS011;66064;50.226;14.344;2023-05-10T14:36:22;6.65;;;4.93;;
77111;SDS011;66064;50.226;14.344;2023-05-10T14:38:48;7.10;;;4.88;;
77111;SDS011;66064;50.226;14.344;2023-05-10T14:41:15;6.43;;;4.78;;
77111;SDS011;66064;50.226;14.344;2023-05-10T14:43:42;6.40;;;5.80;;
77111;SDS011;66064;50.226;14.344;2023-05-10T14:46:09;10.85;;;5.03;;
77111;SDS011;66064;50.226;14.344;2023-05-10T14:48:35;7.25;;;5.22;;
77111;SDS011;66064;50.226;14.344;2023-05-10T14:51:01;5.55;;;4.53;;
77111;SDS011;66064;50.226;14.344;2023-05-10T14:53:27;5.30;;;4.80;;
77111;SDS011;66064;50.226;14.344;2023-05-10T14:55:53;5.55;;;4.28;;
77111;SDS011;66064;50.226;14.344;2023-05-10T14:58:19;5.32;;;4.70;;
77111;SDS011;66064;50.226;14.344;2023-05-10T15:00:45;5.60;;;4.40;;
77111;SDS011;66064;50.226;14.344;2023-05-10T15:03:11;7.05;;;5.07;;